createdAt,value
2024-03-29T00:03:20.194Z,8.0
2024-03-29T00:38:20.214Z,7.9
2024-03-29T00:43:20.207Z,8.0
2024-03-29T00:48:20.213Z,8.1
2024-03-29T00:58:20.219Z,8.2
2024-03-29T01:08:20.216Z,8.3
2024-03-29T01:23:20.202Z,8.1
2024-03-29T01:28:20.210Z,8.0
2024-03-29T01:38:20.216Z,7.8
2024-03-29T01:48:20.228Z,7.7
2024-03-29T01:58:20.218Z,7.8
2024-03-29T02:03:20.230Z,7.6
2024-03-29T02:28:20.251Z,7.7
2024-03-29T02:33:20.237Z,7.8
2024-03-29T02:38:20.237Z,7.9
2024-03-29T02:43:20.233Z,8.1
2024-03-29T02:53:20.240Z,8.0
2024-03-29T02:58:20.231Z,8.1
2024-03-29T03:08:20.263Z,8.2
2024-03-29T03:23:20.256Z,8.4
2024-03-29T03:28:20.268Z,8.5
2024-03-29T03:33:20.287Z,8.6
2024-03-29T03:43:20.251Z,8.4
2024-03-29T03:48:20.260Z,8.3
2024-03-29T03:53:20.267Z,8.4
2024-03-29T03:58:20.277Z,8.2
2024-03-29T04:03:20.271Z,8.0
2024-03-29T04:08:20.272Z,7.7
2024-03-29T04:13:20.267Z,7.6
2024-03-29T04:18:20.264Z,7.5
2024-03-29T04:23:20.276Z,7.4
2024-03-29T04:38:20.272Z,7.3
2024-03-29T04:43:20.266Z,7.4
2024-03-29T05:18:20.299Z,7.3
2024-03-29T05:33:20.309Z,7.2
2024-03-29T05:53:20.298Z,7.3
2024-03-29T06:23:20.295Z,7.4
2024-03-29T06:28:20.289Z,7.5
2024-03-29T06:33:20.298Z,7.6
2024-03-29T06:38:20.307Z,7.7
2024-03-29T06:58:20.321Z,7.8
2024-03-29T07:03:20.316Z,7.9
2024-03-29T07:13:20.311Z,8.1
2024-03-29T07:18:20.328Z,8.4
2024-03-29T07:23:20.311Z,8.3
2024-03-29T07:38:20.326Z,8.6
2024-03-29T07:43:20.316Z,8.7
2024-03-29T07:48:20.327Z,8.5
2024-03-29T07:58:20.341Z,8.4
2024-03-29T08:03:20.373Z,8.3
2024-03-29T08:08:20.342Z,8.4
2024-03-29T08:13:20.332Z,8.5
2024-03-29T08:18:20.329Z,8.6
2024-03-29T08:23:20.348Z,8.5
2024-03-29T08:28:20.347Z,8.6
2024-03-29T08:33:20.326Z,8.7
2024-03-29T08:38:20.340Z,9.0
2024-03-29T08:43:20.324Z,9.4
2024-03-29T08:48:20.343Z,9.6
2024-03-29T08:53:20.373Z,10.1
2024-03-29T08:58:20.348Z,11.6
2024-03-29T09:03:20.345Z,11.3
2024-03-29T09:08:20.392Z,10.8
2024-03-29T09:13:20.348Z,10.7
2024-03-29T09:18:20.363Z,10.4
2024-03-29T09:23:20.401Z,10.6
2024-03-29T09:28:20.365Z,11.0
2024-03-29T09:33:20.351Z,10.9
2024-03-29T09:43:29.212Z,11.0
2024-03-29T09:48:20.367Z,11.6
2024-03-29T09:53:20.408Z,12.9
2024-03-29T09:58:20.363Z,14.2
2024-03-29T10:03:20.395Z,14.4
2024-03-29T10:08:20.361Z,13.9
2024-03-29T10:13:20.375Z,13.2
2024-03-29T10:18:23.619Z,13.6
2024-03-29T10:23:20.369Z,13.5
2024-03-29T10:28:20.381Z,13.2
2024-03-29T10:33:28.143Z,13.7
2024-03-29T10:38:20.398Z,15.7
2024-03-29T10:43:20.419Z,14.5
2024-03-29T10:53:20.429Z,16.2
2024-03-29T10:58:20.376Z,16.6
2024-03-29T11:08:20.371Z,17.6
2024-03-29T11:13:20.470Z,18.6
2024-03-29T11:18:21.699Z,20.6
2024-03-29T11:23:20.402Z,17.2
2024-03-29T11:28:20.398Z,21.6
2024-03-29T11:33:20.380Z,19.8
2024-03-29T11:38:20.406Z,22.5
2024-03-29T11:43:20.539Z,20.5
2024-03-29T11:48:20.401Z,20.8
2024-03-29T11:53:20.410Z,22.1
2024-03-29T11:58:20.403Z,18.7
2024-03-29T12:03:20.409Z,17.6
2024-03-29T12:08:20.422Z,17.5
2024-03-29T12:13:20.403Z,18.7
2024-03-29T12:18:20.430Z,18.0
2024-03-29T12:23:20.435Z,18.4
2024-03-29T12:28:20.415Z,19.8
2024-03-29T12:33:20.408Z,21.7
2024-03-29T12:38:20.493Z,22.2
2024-03-29T12:43:20.404Z,25.4
2024-03-29T12:48:20.401Z,26.0
2024-03-29T12:53:20.419Z,21.0
2024-03-29T12:58:20.412Z,22.4
2024-03-29T13:03:20.427Z,20.7
2024-03-29T13:08:20.422Z,21.2
2024-03-29T13:13:20.421Z,25.6
2024-03-29T13:18:20.425Z,22.5
2024-03-29T13:23:20.429Z,23.6
2024-03-29T13:28:20.487Z,22.7
2024-03-29T13:38:20.429Z,20.5
2024-03-29T13:43:20.455Z,20.3
2024-03-29T13:48:20.439Z,18.5
2024-03-29T13:53:20.428Z,18.1
2024-03-29T13:58:20.436Z,20.3
2024-03-29T14:03:20.440Z,18.6
2024-03-29T14:08:20.462Z,20.0
2024-03-29T14:13:20.443Z,20.7
2024-03-29T14:23:20.439Z,19.9
2024-03-29T14:28:20.455Z,19.1
2024-03-29T14:33:20.525Z,19.6
2024-03-29T14:38:20.448Z,21.8
2024-03-29T14:43:20.450Z,20.4
2024-03-29T14:48:22.063Z,19.1
2024-03-29T14:53:20.463Z,20.5
2024-03-29T14:58:20.512Z,22.0
2024-03-29T15:03:20.474Z,20.5
2024-03-29T15:08:20.472Z,21.4
2024-03-29T15:13:20.470Z,22.1
2024-03-29T15:18:22.100Z,23.8
2024-03-29T15:23:20.478Z,24.4
2024-03-29T15:28:20.483Z,19.5
2024-03-29T15:33:20.468Z,18.2
2024-03-29T15:38:20.494Z,21.5
2024-03-29T15:43:20.474Z,21.0
2024-03-29T15:48:20.478Z,20.8
2024-03-29T15:53:20.516Z,19.5
2024-03-29T15:58:20.481Z,18.6
2024-03-29T16:03:20.479Z,19.3
2024-03-29T16:08:20.491Z,18.7
2024-03-29T16:13:20.484Z,17.7
2024-03-29T16:18:20.486Z,17.2
2024-03-29T16:23:20.483Z,17.0
2024-03-29T16:28:20.512Z,16.9
2024-03-29T16:43:20.551Z,16.6
2024-03-29T16:48:20.509Z,16.2
2024-03-29T16:53:20.600Z,15.7
2024-03-29T16:58:20.515Z,15.5
2024-03-29T17:03:20.516Z,15.4
2024-03-29T17:08:20.505Z,15.2
2024-03-29T17:13:20.515Z,14.9
2024-03-29T17:18:20.502Z,14.7
2024-03-29T17:23:20.520Z,14.6
2024-03-29T17:33:20.525Z,14.4
2024-03-29T17:38:20.526Z,14.3
2024-03-29T17:43:20.515Z,14.1
2024-03-29T17:48:20.520Z,14.0
2024-03-29T17:53:20.519Z,14.1
2024-03-29T17:58:20.535Z,13.9
2024-03-29T18:03:20.527Z,13.8
2024-03-29T18:08:20.524Z,13.7
2024-03-29T18:18:20.545Z,13.8
2024-03-29T18:28:20.544Z,13.7
2024-03-29T18:33:20.579Z,13.6
2024-03-29T18:43:20.537Z,13.5
2024-03-29T19:13:20.551Z,13.4
2024-03-29T19:18:20.556Z,13.5
2024-03-29T19:28:20.549Z,13.4
2024-03-29T19:38:20.560Z,13.2
2024-03-29T19:43:20.569Z,13.1
2024-03-29T19:48:20.572Z,13.0
2024-03-29T19:58:20.577Z,12.9
2024-03-29T20:03:20.577Z,13.0
2024-03-29T20:08:20.574Z,13.1
2024-03-29T20:23:20.575Z,12.4
2024-03-29T20:28:20.574Z,12.1
2024-03-29T20:33:20.578Z,11.9
2024-03-29T20:38:20.612Z,12.0
2024-03-29T20:43:20.585Z,11.9
2024-03-29T20:48:20.600Z,12.0
2024-03-29T20:53:20.590Z,11.9
2024-03-29T20:58:20.597Z,12.0
2024-03-29T21:08:20.618Z,12.1
2024-03-29T21:13:20.595Z,12.2
2024-03-29T21:18:20.625Z,12.1
2024-03-29T21:28:20.631Z,12.0
2024-03-29T21:33:20.614Z,11.9
2024-03-29T21:38:20.623Z,11.8
2024-03-29T21:43:20.608Z,11.6
2024-03-29T21:53:20.628Z,11.4
2024-03-29T21:58:20.623Z,11.5
2024-03-29T22:03:20.628Z,11.4
2024-03-29T23:03:20.667Z,11.3
2024-03-29T23:08:20.654Z,11.1
2024-03-29T23:13:20.643Z,11.0
2024-03-29T23:18:20.650Z,10.9
2024-03-29T23:28:20.650Z,10.8
2024-03-29T23:38:20.652Z,10.7
2024-03-29T23:48:20.659Z,10.6
